Terminal Aerodrome Forecast
Issued by NWS Jackson, KY

Home | Current Version | Previous Version | Text Only | Print | Product List | Glossary On
Versions: 1 2 3 4 5 6 7 8 9 10 11 12 13 14 15 16 17 18 19 20 21 22
123
FTUS43 KJKL 252325
TAFJKL
TAF
KJKL 252325Z 2600/2624 00000KT P6SM BKN250
     FM260600 00000KT 5SM BR SCT015 BKN250
     FM261000 00000KT 2SM BR SCT015 BKN090
     FM261300 00000KT P6SM SCT015 BKN090
     FM261600 00000KT P6SM VCTS SCT020CB BKN090=

USA.gov is the U.S. government's official web portal to all federal, state and local government web resources and services.